createdAt,value
2023-03-25T00:03:19.838Z,9.80
2023-03-25T00:08:25.719Z,9.70
2023-03-25T00:13:31.968Z,9.54
2023-03-25T00:18:35.676Z,9.40
2023-03-25T00:23:40.524Z,9.30
2023-03-25T00:28:43.634Z,9.20
2023-03-25T00:33:47.068Z,9.20
2023-03-25T00:38:50.186Z,9.10
2023-03-25T00:43:56.734Z,9.00
2023-03-25T00:49:01.143Z,8.90
2023-03-25T00:54:05.001Z,8.80
2023-03-25T00:59:08.320Z,8.76
2023-03-25T01:04:12.981Z,8.80
2023-03-25T01:09:16.487Z,8.80
2023-03-25T01:14:24.386Z,8.80
2023-03-25T01:19:27.916Z,8.76
2023-03-25T01:24:31.936Z,8.72
2023-03-25T01:29:35.061Z,8.70
2023-03-25T01:34:38.892Z,8.60
2023-03-25T01:39:42.188Z,8.56
2023-03-25T01:44:45.175Z,8.50
2023-03-25T01:49:48.290Z,8.50
2023-03-25T01:54:55.236Z,8.42
2023-03-25T01:59:58.593Z,8.40
2023-03-25T02:05:18.704Z,8.40
2023-03-25T02:10:22.106Z,8.40
2023-03-25T02:15:26.690Z,8.30
2023-03-25T02:21:03.764Z,8.26
2023-03-25T02:26:32.769Z,8.20
2023-03-25T02:31:54.144Z,8.10
2023-03-25T02:37:19.224Z,8.10
2023-03-25T02:42:37.479Z,8.00
2023-03-25T02:47:49.432Z,8.00
2023-03-25T02:52:59.281Z,8.00
2023-03-25T02:58:10.130Z,7.94
2023-03-25T03:03:13.351Z,7.90
2023-03-25T03:08:40.944Z,7.80
2023-03-25T03:14:11.693Z,7.70
2023-03-25T03:19:41.226Z,7.70
2023-03-25T03:25:22.132Z,7.70
2023-03-25T03:30:54.596Z,7.68
2023-03-25T03:36:13.912Z,7.62
2023-03-25T03:41:22.982Z,7.60
2023-03-25T03:46:54.742Z,7.60
2023-03-25T03:52:33.558Z,7.62
2023-03-25T03:57:57.351Z,7.60
2023-03-25T04:03:35.196Z,7.60
2023-03-25T04:08:53.774Z,7.60
2023-03-25T04:14:01.474Z,7.56
2023-03-25T04:19:06.943Z,7.50
2023-03-25T04:24:11.733Z,7.50
2023-03-25T04:29:15.010Z,7.50
2023-03-25T04:34:20.791Z,7.40
2023-03-25T04:39:24.155Z,7.30
2023-03-25T04:44:28.850Z,7.30
2023-03-25T04:49:32.039Z,7.20
2023-03-25T04:54:35.113Z,7.30
2023-03-25T04:59:38.955Z,7.30
2023-03-25T05:04:43.152Z,7.30
2023-03-25T05:09:46.285Z,7.30
2023-03-25T05:14:49.384Z,7.22
2023-03-25T05:19:53.211Z,7.20
2023-03-25T05:24:56.611Z,7.32
2023-03-25T05:30:00.772Z,7.40
2023-03-25T05:35:04.953Z,7.48
2023-03-25T05:40:15.037Z,7.40
2023-03-25T05:45:18.977Z,7.40
2023-03-25T05:50:22.800Z,7.40
2023-03-25T05:55:27.757Z,7.52
2023-03-25T06:00:31.276Z,7.64
2023-03-25T06:05:34.369Z,7.70
2023-03-25T06:10:37.580Z,7.70
2023-03-25T06:15:44.903Z,7.68
2023-03-25T06:20:48.713Z,7.72
2023-03-25T06:25:52.345Z,8.00
2023-03-25T06:30:55.972Z,8.20
2023-03-25T06:35:59.172Z,8.30
2023-03-25T06:41:02.572Z,8.30
2023-03-25T06:46:07.208Z,8.40
2023-03-25T06:51:10.623Z,8.40
2023-03-25T06:56:14.037Z,8.68
2023-03-25T07:01:17.326Z,8.80
2023-03-25T07:06:23.252Z,8.90
2023-03-25T07:11:29.684Z,8.90
2023-03-25T07:16:32.954Z,9.00
2023-03-25T07:21:36.223Z,9.20
2023-03-25T07:26:39.575Z,9.40
2023-03-25T07:31:42.985Z,9.46
2023-03-25T07:36:46.280Z,9.50
2023-03-25T07:41:49.483Z,9.50
2023-03-25T07:46:53.104Z,9.68
2023-03-25T07:51:56.300Z,9.80
2023-03-25T07:57:00.551Z,9.94
2023-03-25T08:02:03.943Z,10.20
2023-03-25T08:07:08.177Z,10.24
2023-03-25T08:12:11.525Z,10.20
2023-03-25T08:17:14.595Z,10.20
2023-03-25T08:22:17.804Z,10.40
2023-03-25T08:27:21.210Z,10.80
2023-03-25T08:32:26.606Z,10.90
2023-03-25T08:37:30.910Z,11.00
2023-03-25T08:42:34.025Z,11.10
2023-03-25T08:47:37.361Z,11.20
2023-03-25T08:52:41.460Z,11.30
2023-03-25T08:57:45.204Z,11.20
2023-03-25T09:02:48.342Z,11.20
2023-03-25T09:07:51.604Z,11.32
2023-03-25T09:12:54.927Z,11.54
2023-03-25T09:17:58.825Z,11.70
2023-03-25T09:23:02.163Z,11.90
2023-03-25T09:28:06.176Z,11.90
2023-03-25T09:33:09.607Z,11.82
2023-03-25T09:38:13.626Z,11.98
2023-03-25T09:43:58.415Z,12.20
2023-03-25T09:49:02.009Z,12.46
2023-03-25T09:54:40.446Z,12.58
2023-03-25T09:59:51.756Z,12.90
2023-03-25T10:05:23.125Z,13.20
2023-03-25T10:10:52.134Z,13.38
2023-03-25T10:16:26.966Z,13.60
2023-03-25T10:21:49.860Z,13.64
2023-03-25T10:26:56.135Z,13.60
2023-03-25T10:32:07.676Z,13.54
2023-03-25T10:37:18.226Z,13.50
2023-03-25T10:42:35.899Z,13.70
2023-03-25T10:47:41.591Z,13.70
2023-03-25T10:52:48.946Z,13.70
2023-03-25T10:57:54.802Z,13.80
2023-03-25T11:02:58.090Z,13.80
2023-03-25T11:08:18.157Z,13.96
2023-03-25T11:13:30.807Z,13.90
2023-03-25T11:18:42.255Z,13.70
2023-03-25T11:23:52.126Z,13.60
2023-03-25T11:29:02.615Z,13.44
2023-03-25T11:34:24.402Z,13.40
2023-03-25T11:39:36.568Z,13.50
2023-03-25T11:44:40.898Z,13.70
2023-03-25T11:49:49.966Z,13.82
2023-03-25T11:54:57.276Z,13.84
2023-03-25T12:00:29.231Z,13.92
2023-03-25T12:05:34.283Z,13.90
2023-03-25T12:11:17.127Z,13.90
2023-03-25T12:17:09.285Z,14.00
2023-03-25T12:22:17.649Z,14.30
2023-03-25T12:27:42.633Z,14.54
2023-03-25T12:33:01.632Z,14.50
2023-03-25T12:38:53.656Z,14.50
2023-03-25T12:44:40.827Z,14.64
2023-03-25T12:50:03.367Z,14.70
2023-03-25T12:55:09.474Z,14.80
2023-03-25T13:00:47.953Z,14.50
2023-03-25T13:06:24.877Z,14.20
2023-03-25T13:11:43.741Z,13.90
2023-03-25T13:16:51.507Z,13.70
2023-03-25T13:22:11.180Z,13.50
2023-03-25T13:27:15.488Z,13.30
2023-03-25T13:32:27.197Z,13.10
2023-03-25T13:37:45.465Z,13.08
2023-03-25T13:42:58.807Z,13.10
2023-03-25T13:48:20.063Z,13.34
2023-03-25T13:53:53.149Z,13.70
2023-03-25T13:59:16.793Z,14.10
2023-03-25T14:04:32.975Z,14.68
2023-03-25T14:10:10.979Z,15.08
2023-03-25T14:15:27.597Z,15.30
2023-03-25T14:20:47.766Z,15.30
2023-03-25T14:25:59.323Z,15.50
2023-03-25T14:31:14.696Z,15.74
2023-03-25T14:36:18.012Z,15.70
2023-03-25T14:42:02.092Z,15.60
2023-03-25T14:47:21.092Z,15.70
2023-03-25T14:52:45.378Z,15.90
2023-03-25T14:57:51.510Z,15.90
2023-03-25T15:03:10.939Z,15.70
2023-03-25T15:08:21.432Z,15.22
2023-03-25T15:13:53.081Z,14.90
2023-03-25T15:18:56.305Z,14.70
2023-03-25T15:24:13.893Z,14.50
2023-03-25T15:29:39.058Z,14.36
2023-03-25T15:35:16.100Z,14.20
2023-03-25T15:40:29.824Z,14.10
2023-03-25T15:45:45.018Z,14.10
2023-03-25T15:51:05.826Z,14.00
2023-03-25T15:56:25.315Z,13.90
2023-03-25T16:01:32.791Z,13.80
2023-03-25T16:06:44.133Z,13.70
2023-03-25T16:11:47.989Z,13.52
2023-03-25T16:16:55.933Z,13.50
2023-03-25T16:22:03.956Z,13.50
2023-03-25T16:27:19.541Z,13.44
2023-03-25T16:32:34.070Z,13.30
2023-03-25T16:37:38.507Z,13.22
2023-03-25T16:42:41.728Z,13.10
2023-03-25T16:47:46.866Z,12.90
2023-03-25T16:52:51.630Z,12.70
2023-03-25T16:57:55.655Z,12.50
2023-03-25T17:03:00.339Z,12.40
2023-03-25T17:08:08.686Z,12.20
2023-03-25T17:13:25.655Z,12.00
2023-03-25T17:18:32.705Z,11.80
2023-03-25T17:23:43.058Z,11.62
2023-03-25T17:28:58.469Z,11.50
2023-03-25T17:34:20.945Z,11.40
2023-03-25T17:39:31.081Z,11.30
2023-03-25T17:44:37.633Z,11.20
2023-03-25T17:49:41.352Z,11.18
2023-03-25T17:54:44.458Z,11.00
2023-03-25T17:59:48.185Z,10.90
2023-03-25T18:04:51.801Z,10.80
2023-03-25T18:09:55.262Z,10.70
2023-03-25T18:14:58.412Z,10.62
2023-03-25T18:20:01.627Z,10.60
2023-03-25T18:25:05.755Z,10.62
2023-03-25T18:30:27.610Z,10.60
2023-03-25T18:35:30.722Z,10.60
2023-03-25T18:40:36.551Z,10.50
2023-03-25T18:45:39.738Z,10.50
2023-03-25T18:50:49.765Z,10.50
2023-03-25T18:55:56.170Z,10.50
2023-03-25T19:01:02.541Z,10.42
2023-03-25T19:06:13.683Z,10.40
2023-03-25T19:11:21.511Z,10.40
2023-03-25T19:16:25.510Z,10.50
2023-03-25T19:21:28.685Z,10.50
2023-03-25T19:26:31.984Z,10.38
2023-03-25T19:31:35.224Z,10.26
2023-03-25T19:36:38.705Z,10.10
2023-03-25T19:41:43.030Z,10.10
2023-03-25T19:46:47.041Z,10.00
2023-03-25T19:51:51.405Z,9.90
2023-03-25T19:56:54.580Z,9.90
2023-03-25T20:01:58.882Z,9.90
2023-03-25T20:07:02.264Z,9.80
2023-03-25T20:12:06.387Z,9.70
2023-03-25T20:17:09.507Z,9.60
2023-03-25T20:22:24.135Z,9.50
2023-03-25T20:27:30.045Z,9.40
2023-03-25T20:32:40.614Z,9.32
2023-03-25T20:37:48.994Z,9.30
2023-03-25T20:42:52.280Z,9.20
2023-03-25T20:47:57.370Z,9.10
2023-03-25T20:53:00.431Z,9.00
2023-03-25T20:58:04.289Z,8.90
2023-03-25T21:03:07.921Z,8.90
2023-03-25T21:08:13.645Z,8.80
2023-03-25T21:13:16.754Z,8.80
2023-03-25T21:18:19.953Z,8.80
2023-03-25T21:23:32.094Z,8.80
2023-03-25T21:28:38.667Z,8.76
2023-03-25T21:33:41.792Z,8.70
2023-03-25T21:38:45.594Z,8.70
2023-03-25T21:43:49.533Z,8.70
2023-03-25T21:48:58.553Z,8.70
2023-03-25T21:54:02.404Z,8.70
2023-03-25T21:59:05.897Z,8.60
2023-03-25T22:04:09.577Z,8.44
2023-03-25T22:09:12.814Z,8.40
2023-03-25T22:14:16.133Z,8.30
2023-03-25T22:19:19.372Z,8.30
2023-03-25T22:24:22.760Z,8.30
2023-03-25T22:29:25.855Z,8.34
2023-03-25T22:34:28.906Z,8.30
2023-03-25T22:39:32.064Z,8.26
2023-03-25T22:44:35.212Z,8.20
2023-03-25T22:49:38.381Z,8.10
2023-03-25T22:54:41.815Z,8.10
2023-03-25T22:59:45.101Z,8.06
2023-03-25T23:04:48.143Z,8.00
2023-03-25T23:09:51.220Z,7.98
2023-03-25T23:14:56.381Z,7.86
2023-03-25T23:19:59.428Z,7.76
2023-03-25T23:25:04.945Z,7.70
2023-03-25T23:30:09.123Z,7.70
2023-03-25T23:35:12.297Z,7.78
2023-03-25T23:40:16.366Z,7.80
2023-03-25T23:45:20.138Z,7.80
2023-03-25T23:50:23.263Z,7.80
2023-03-25T23:55:26.358Z,7.80
